sensor_id;sensor_type;location;lat;lon;timestamp;temperature;humidity
6810;DHT22;3443;48.812;9.112;2023-03-21T00:01:50;9.70;99.90
6810;DHT22;3443;48.812;9.112;2023-03-21T00:04:16;9.70;99.90
6810;DHT22;3443;48.812;9.112;2023-03-21T00:06:41;9.70;99.90
6810;DHT22;3443;48.812;9.112;2023-03-21T00:09:08;9.70;99.90
6810;DHT22;3443;48.812;9.112;2023-03-21T00:11:33;9.60;99.90
6810;DHT22;3443;48.812;9.112;2023-03-21T00:13:59;9.60;99.90
6810;DHT22;3443;48.812;9.112;2023-03-21T00:16:26;9.60;99.90
6810;DHT22;3443;48.812;9.112;2023-03-21T00:18:55;9.60;99.90
6810;DHT22;3443;48.812;9.112;2023-03-21T00:21:22;9.60;99.90
6810;DHT22;3443;48.812;9.112;2023-03-21T00:23:53;9.60;99.90
6810;DHT22;3443;48.812;9.112;2023-03-21T00:26:19;9.60;99.90
6810;DHT22;3443;48.812;9.112;2023-03-21T00:28:47;9.60;99.90
6810;DHT22;3443;48.812;9.112;2023-03-21T00:31:13;9.60;99.90
6810;DHT22;3443;48.812;9.112;2023-03-21T00:33:39;9.60;99.90
6810;DHT22;3443;48.812;9.112;2023-03-21T00:36:05;9.50;99.90
6810;DHT22;3443;48.812;9.112;2023-03-21T00:43:24;9.60;99.90
6810;DHT22;3443;48.812;9.112;2023-03-21T00:45:55;9.60;99.90
6810;DHT22;3443;48.812;9.112;2023-03-21T00:48:21;9.60;99.90
6810;DHT22;3443;48.812;9.112;2023-03-21T00:53:13;10.10;99.90
6810;DHT22;3443;48.812;9.112;2023-03-21T00:58:06;9.50;99.90
6810;DHT22;3443;48.812;9.112;2023-03-21T01:00:33;9.50;99.90
6810;DHT22;3443;48.812;9.112;2023-03-21T01:03:02;9.50;99.90
6810;DHT22;3443;48.812;9.112;2023-03-21T01:05:32;9.40;99.90
6810;DHT22;3443;48.812;9.112;2023-03-21T01:08:17;9.40;99.90
6810;DHT22;3443;48.812;9.112;2023-03-21T01:10:45;9.40;99.90
6810;DHT22;3443;48.812;9.112;2023-03-21T01:13:13;9.40;99.90
6810;DHT22;3443;48.812;9.112;2023-03-21T01:15:44;9.40;99.90
6810;DHT22;3443;48.812;9.112;2023-03-21T01:18:11;9.30;99.90
6810;DHT22;3443;48.812;9.112;2023-03-21T01:20:38;9.30;99.90
6810;DHT22;3443;48.812;9.112;2023-03-21T01:23:04;9.30;99.90
6810;DHT22;3443;48.812;9.112;2023-03-21T01:25:30;9.30;99.90
6810;DHT22;3443;48.812;9.112;2023-03-21T01:27:55;9.30;99.90
6810;DHT22;3443;48.812;9.112;2023-03-21T01:30:21;9.30;99.90
6810;DHT22;3443;48.812;9.112;2023-03-21T01:32:47;9.30;99.90
6810;DHT22;3443;48.812;9.112;2023-03-21T01:35:12;9.30;99.90
6810;DHT22;3443;48.812;9.112;2023-03-21T01:37:38;9.30;99.90
6810;DHT22;3443;48.812;9.112;2023-03-21T01:40:04;9.10;99.90
6810;DHT22;3443;48.812;9.112;2023-03-21T01:42:30;9.30;99.90
6810;DHT22;3443;48.812;9.112;2023-03-21T01:47:25;9.20;99.90
6810;DHT22;3443;48.812;9.112;2023-03-21T01:49:53;9.20;99.90
6810;DHT22;3443;48.812;9.112;2023-03-21T01:52:25;9.20;99.90
6810;DHT22;3443;48.812;9.112;2023-03-21T01:54:52;9.20;99.90
6810;DHT22;3443;48.812;9.112;2023-03-21T01:57:26;9.30;99.90
6810;DHT22;3443;48.812;9.112;2023-03-21T01:59:57;9.30;99.90
6810;DHT22;3443;48.812;9.112;2023-03-21T02:02:29;9.20;99.90
6810;DHT22;3443;48.812;9.112;2023-03-21T02:04:56;9.20;99.90
6810;DHT22;3443;48.812;9.112;2023-03-21T02:07:28;9.20;99.90
6810;DHT22;3443;48.812;9.112;2023-03-21T02:09:55;9.20;99.90
6810;DHT22;3443;48.812;9.112;2023-03-21T02:12:22;9.20;99.90
6810;DHT22;3443;48.812;9.112;2023-03-21T02:14:48;9.10;99.90
6810;DHT22;3443;48.812;9.112;2023-03-21T02:17:44;9.10;99.90
6810;DHT22;3443;48.812;9.112;2023-03-21T02:28:23;9.10;99.90
6810;DHT22;3443;48.812;9.112;2023-03-21T02:31:09;9.10;99.90
6810;DHT22;3443;48.812;9.112;2023-03-21T02:36:26;9.00;99.90
6810;DHT22;3443;48.812;9.112;2023-03-21T02:39:11;9.00;99.90
6810;DHT22;3443;48.812;9.112;2023-03-21T02:41:51;9.00;99.90
6810;DHT22;3443;48.812;9.112;2023-03-21T02:44:23;9.00;99.90
6810;DHT22;3443;48.812;9.112;2023-03-21T02:47:02;9.00;99.90
6810;DHT22;3443;48.812;9.112;2023-03-21T02:49:49;9.00;99.90
6810;DHT22;3443;48.812;9.112;2023-03-21T02:52:22;9.00;99.90
6810;DHT22;3443;48.812;9.112;2023-03-21T02:54:48;9.00;99.90
6810;DHT22;3443;48.812;9.112;2023-03-21T02:57:17;9.00;99.90
6810;DHT22;3443;48.812;9.112;2023-03-21T02:59:45;9.00;99.90
6810;DHT22;3443;48.812;9.112;2023-03-21T03:02:14;9.00;99.90
6810;DHT22;3443;48.812;9.112;2023-03-21T03:04:41;9.00;99.90
6810;DHT22;3443;48.812;9.112;2023-03-21T03:18:35;8.90;99.90
6810;DHT22;3443;48.812;9.112;2023-03-21T03:24:19;8.90;99.90
6810;DHT22;3443;48.812;9.112;2023-03-21T03:26:56;8.80;99.90
6810;DHT22;3443;48.812;9.112;2023-03-21T03:36:55;8.60;99.90
6810;DHT22;3443;48.812;9.112;2023-03-21T03:39:26;8.80;99.90
6810;DHT22;3443;48.812;9.112;2023-03-21T03:42:06;8.70;99.90
6810;DHT22;3443;48.812;9.112;2023-03-21T03:44:34;8.80;99.90
6810;DHT22;3443;48.812;9.112;2023-03-21T03:47:10;8.80;99.90
6810;DHT22;3443;48.812;9.112;2023-03-21T03:49:47;8.80;99.90
6810;DHT22;3443;48.812;9.112;2023-03-21T03:52:28;8.80;99.90
6810;DHT22;3443;48.812;9.112;2023-03-21T03:54:55;8.80;99.90
6810;DHT22;3443;48.812;9.112;2023-03-21T03:57:22;8.70;99.90
6810;DHT22;3443;48.812;9.112;2023-03-21T03:59:49;8.80;99.90
6810;DHT22;3443;48.812;9.112;2023-03-21T04:02:15;8.70;99.90
6810;DHT22;3443;48.812;9.112;2023-03-21T04:04:41;8.70;99.90
6810;DHT22;3443;48.812;9.112;2023-03-21T04:07:07;8.60;99.90
6810;DHT22;3443;48.812;9.112;2023-03-21T04:09:33;8.60;99.90
6810;DHT22;3443;48.812;9.112;2023-03-21T04:11:59;8.70;99.90
6810;DHT22;3443;48.812;9.112;2023-03-21T04:14:25;8.60;99.90
6810;DHT22;3443;48.812;9.112;2023-03-21T04:16:51;8.60;99.90
6810;DHT22;3443;48.812;9.112;2023-03-21T04:19:17;8.60;99.90
6810;DHT22;3443;48.812;9.112;2023-03-21T04:21:43;8.50;99.90
6810;DHT22;3443;48.812;9.112;2023-03-21T04:24:08;8.50;99.90
6810;DHT22;3443;48.812;9.112;2023-03-21T04:26:36;8.70;99.90
6810;DHT22;3443;48.812;9.112;2023-03-21T04:31:29;8.30;99.90
6810;DHT22;3443;48.812;9.112;2023-03-21T04:34:00;8.30;99.90
6810;DHT22;3443;48.812;9.112;2023-03-21T04:36:26;8.30;99.90
6810;DHT22;3443;48.812;9.112;2023-03-21T04:38:57;8.30;99.90
6810;DHT22;3443;48.812;9.112;2023-03-21T04:41:27;8.20;99.90
6810;DHT22;3443;48.812;9.112;2023-03-21T04:43:53;8.20;99.90
6810;DHT22;3443;48.812;9.112;2023-03-21T04:46:19;8.20;99.90
6810;DHT22;3443;48.812;9.112;2023-03-21T04:48:44;8.10;99.90
6810;DHT22;3443;48.812;9.112;2023-03-21T04:51:12;8.10;99.90
6810;DHT22;3443;48.812;9.112;2023-03-21T04:53:37;8.00;99.90
6810;DHT22;3443;48.812;9.112;2023-03-21T04:56:04;8.00;99.90
6810;DHT22;3443;48.812;9.112;2023-03-21T04:58:30;8.00;99.90
6810;DHT22;3443;48.812;9.112;2023-03-21T05:00:56;8.00;99.90
6810;DHT22;3443;48.812;9.112;2023-03-21T05:03:23;8.00;99.90
6810;DHT22;3443;48.812;9.112;2023-03-21T05:05:49;8.00;99.90
6810;DHT22;3443;48.812;9.112;2023-03-21T05:08:15;7.90;99.90
6810;DHT22;3443;48.812;9.112;2023-03-21T05:10:41;8.00;99.90
6810;DHT22;3443;48.812;9.112;2023-03-21T05:13:07;8.00;99.90
6810;DHT22;3443;48.812;9.112;2023-03-21T05:15:33;8.00;99.90
6810;DHT22;3443;48.812;9.112;2023-03-21T05:17:58;7.90;99.90
6810;DHT22;3443;48.812;9.112;2023-03-21T05:20:34;7.90;99.90
6810;DHT22;3443;48.812;9.112;2023-03-21T05:23:00;7.90;99.90
6810;DHT22;3443;48.812;9.112;2023-03-21T05:25:25;7.90;99.90
6810;DHT22;3443;48.812;9.112;2023-03-21T05:27:59;7.90;99.90
6810;DHT22;3443;48.812;9.112;2023-03-21T05:30:27;7.90;99.90
6810;DHT22;3443;48.812;9.112;2023-03-21T05:32:53;7.90;99.90
6810;DHT22;3443;48.812;9.112;2023-03-21T05:35:18;7.80;99.90
6810;DHT22;3443;48.812;9.112;2023-03-21T05:37:44;7.80;99.90
6810;DHT22;3443;48.812;9.112;2023-03-21T05:40:10;7.90;99.90
6810;DHT22;3443;48.812;9.112;2023-03-21T05:42:36;7.90;99.90
6810;DHT22;3443;48.812;9.112;2023-03-21T05:45:01;7.90;99.90
6810;DHT22;3443;48.812;9.112;2023-03-21T05:47:27;7.90;99.90
6810;DHT22;3443;48.812;9.112;2023-03-21T05:49:52;8.00;99.90
6810;DHT22;3443;48.812;9.112;2023-03-21T05:52:18;8.00;99.90
6810;DHT22;3443;48.812;9.112;2023-03-21T05:54:43;8.10;99.90
6810;DHT22;3443;48.812;9.112;2023-03-21T05:57:09;8.10;99.90
6810;DHT22;3443;48.812;9.112;2023-03-21T05:59:35;8.10;99.90
6810;DHT22;3443;48.812;9.112;2023-03-21T06:02:01;8.20;99.90
6810;DHT22;3443;48.812;9.112;2023-03-21T06:04:27;8.20;99.90
6810;DHT22;3443;48.812;9.112;2023-03-21T06:06:52;8.20;99.90
6810;DHT22;3443;48.812;9.112;2023-03-21T06:09:19;8.20;99.90
6810;DHT22;3443;48.812;9.112;2023-03-21T06:11:50;8.10;99.90
6810;DHT22;3443;48.812;9.112;2023-03-21T06:14:17;8.10;99.90
6810;DHT22;3443;48.812;9.112;2023-03-21T06:16:43;8.10;99.90
6810;DHT22;3443;48.812;9.112;2023-03-21T06:19:09;8.10;99.90
6810;DHT22;3443;48.812;9.112;2023-03-21T06:21:34;8.10;99.90
6810;DHT22;3443;48.812;9.112;2023-03-21T06:24:00;8.10;99.90
6810;DHT22;3443;48.812;9.112;2023-03-21T06:26:26;8.00;99.90
6810;DHT22;3443;48.812;9.112;2023-03-21T06:28:52;8.00;99.90
6810;DHT22;3443;48.812;9.112;2023-03-21T06:31:18;8.00;99.90
6810;DHT22;3443;48.812;9.112;2023-03-21T06:33:47;8.00;99.90
6810;DHT22;3443;48.812;9.112;2023-03-21T06:36:13;8.10;99.90
6810;DHT22;3443;48.812;9.112;2023-03-21T06:38:40;8.10;99.90
6810;DHT22;3443;48.812;9.112;2023-03-21T06:43:33;8.10;99.90
6810;DHT22;3443;48.812;9.112;2023-03-21T06:45:59;8.10;99.90
6810;DHT22;3443;48.812;9.112;2023-03-21T06:48:25;8.20;99.90
6810;DHT22;3443;48.812;9.112;2023-03-21T06:50:52;8.20;99.90
6810;DHT22;3443;48.812;9.112;2023-03-21T06:58:16;8.30;99.90
6810;DHT22;3443;48.812;9.112;2023-03-21T07:00:41;8.30;99.90
6810;DHT22;3443;48.812;9.112;2023-03-21T07:03:07;8.40;99.90
6810;DHT22;3443;48.812;9.112;2023-03-21T07:05:34;8.40;99.90
6810;DHT22;3443;48.812;9.112;2023-03-21T07:08:00;8.50;99.90
6810;DHT22;3443;48.812;9.112;2023-03-21T07:10:26;8.60;99.90
6810;DHT22;3443;48.812;9.112;2023-03-21T07:12:51;8.70;99.90
6810;DHT22;3443;48.812;9.112;2023-03-21T07:15:17;8.80;99.90
6810;DHT22;3443;48.812;9.112;2023-03-21T07:17:42;8.90;99.90
6810;DHT22;3443;48.812;9.112;2023-03-21T07:20:08;9.00;99.90
6810;DHT22;3443;48.812;9.112;2023-03-21T07:22:37;9.10;99.90
6810;DHT22;3443;48.812;9.112;2023-03-21T07:25:03;9.10;99.90
6810;DHT22;3443;48.812;9.112;2023-03-21T07:27:30;9.30;99.90
6810;DHT22;3443;48.812;9.112;2023-03-21T07:29:55;9.30;99.90
6810;DHT22;3443;48.812;9.112;2023-03-21T07:32:21;9.30;99.90
6810;DHT22;3443;48.812;9.112;2023-03-21T07:34:47;9.40;99.90
6810;DHT22;3443;48.812;9.112;2023-03-21T07:37:12;9.50;99.90
6810;DHT22;3443;48.812;9.112;2023-03-21T07:39:38;9.60;99.90
6810;DHT22;3443;48.812;9.112;2023-03-21T07:42:04;9.70;99.90
6810;DHT22;3443;48.812;9.112;2023-03-21T07:44:30;9.90;99.90
6810;DHT22;3443;48.812;9.112;2023-03-21T07:46:57;10.00;99.90
6810;DHT22;3443;48.812;9.112;2023-03-21T07:49:23;10.20;99.90
6810;DHT22;3443;48.812;9.112;2023-03-21T07:51:48;10.30;99.90
6810;DHT22;3443;48.812;9.112;2023-03-21T07:54:14;10.40;99.90
6810;DHT22;3443;48.812;9.112;2023-03-21T07:56:43;10.50;99.90
6810;DHT22;3443;48.812;9.112;2023-03-21T07:59:09;10.60;99.90
6810;DHT22;3443;48.812;9.112;2023-03-21T08:01:34;10.70;99.90
6810;DHT22;3443;48.812;9.112;2023-03-21T08:04:00;10.80;99.90
6810;DHT22;3443;48.812;9.112;2023-03-21T08:06:29;10.90;99.90
6810;DHT22;3443;48.812;9.112;2023-03-21T08:08:57;11.00;99.90
6810;DHT22;3443;48.812;9.112;2023-03-21T08:11:23;11.20;99.90
6810;DHT22;3443;48.812;9.112;2023-03-21T08:13:49;11.30;99.90
6810;DHT22;3443;48.812;9.112;2023-03-21T08:16:16;11.50;99.90
6810;DHT22;3443;48.812;9.112;2023-03-21T08:18:42;11.60;99.90
6810;DHT22;3443;48.812;9.112;2023-03-21T08:21:07;11.70;99.90
6810;DHT22;3443;48.812;9.112;2023-03-21T08:23:33;11.70;99.90
6810;DHT22;3443;48.812;9.112;2023-03-21T08:25:59;11.90;99.90
6810;DHT22;3443;48.812;9.112;2023-03-21T08:28:26;12.00;99.90
6810;DHT22;3443;48.812;9.112;2023-03-21T08:30:52;12.10;99.90
6810;DHT22;3443;48.812;9.112;2023-03-21T08:33:19;12.40;99.90
6810;DHT22;3443;48.812;9.112;2023-03-21T08:35:44;12.50;99.90
6810;DHT22;3443;48.812;9.112;2023-03-21T08:38:10;12.70;99.90
6810;DHT22;3443;48.812;9.112;2023-03-21T08:40:36;12.80;99.90
6810;DHT22;3443;48.812;9.112;2023-03-21T08:43:02;12.90;99.90
6810;DHT22;3443;48.812;9.112;2023-03-21T08:45:28;12.90;99.90
6810;DHT22;3443;48.812;9.112;2023-03-21T08:47:54;13.00;99.90
6810;DHT22;3443;48.812;9.112;2023-03-21T08:50:22;12.80;99.90
6810;DHT22;3443;48.812;9.112;2023-03-21T08:52:49;12.80;99.90
6810;DHT22;3443;48.812;9.112;2023-03-21T08:55:15;13.00;99.90
6810;DHT22;3443;48.812;9.112;2023-03-21T08:57:42;13.20;99.90
6810;DHT22;3443;48.812;9.112;2023-03-21T09:00:10;13.40;99.90
6810;DHT22;3443;48.812;9.112;2023-03-21T09:05:06;13.80;99.90
6810;DHT22;3443;48.812;9.112;2023-03-21T09:12:26;14.20;99.90
6810;DHT22;3443;48.812;9.112;2023-03-21T09:14:52;14.20;99.90
6810;DHT22;3443;48.812;9.112;2023-03-21T09:17:18;14.20;99.90
6810;DHT22;3443;48.812;9.112;2023-03-21T09:19:44;14.10;99.90
6810;DHT22;3443;48.812;9.112;2023-03-21T09:22:10;14.20;99.90
6810;DHT22;3443;48.812;9.112;2023-03-21T09:24:42;14.30;99.90
6810;DHT22;3443;48.812;9.112;2023-03-21T09:27:08;14.50;99.90
6810;DHT22;3443;48.812;9.112;2023-03-21T09:29:34;14.50;99.90
6810;DHT22;3443;48.812;9.112;2023-03-21T09:32:00;14.40;99.90
6810;DHT22;3443;48.812;9.112;2023-03-21T09:34:26;14.20;99.90
6810;DHT22;3443;48.812;9.112;2023-03-21T09:36:52;14.30;99.90
6810;DHT22;3443;48.812;9.112;2023-03-21T09:39:21;14.60;99.90
6810;DHT22;3443;48.812;9.112;2023-03-21T09:46:59;15.60;99.90
6810;DHT22;3443;48.812;9.112;2023-03-21T09:49:38;15.70;99.90
6810;DHT22;3443;48.812;9.112;2023-03-21T09:52:52;15.60;99.90
6810;DHT22;3443;48.812;9.112;2023-03-21T09:54:58;15.80;99.90
6810;DHT22;3443;48.812;9.112;2023-03-21T10:00:04;15.30;99.90
6810;DHT22;3443;48.812;9.112;2023-03-21T10:02:42;15.00;99.90
6810;DHT22;3443;48.812;9.112;2023-03-21T10:05:19;15.30;99.90
6810;DHT22;3443;48.812;9.112;2023-03-21T10:07:51;15.50;99.90
6810;DHT22;3443;48.812;9.112;2023-03-21T10:10:22;15.50;99.90
6810;DHT22;3443;48.812;9.112;2023-03-21T10:12:51;15.50;99.90
6810;DHT22;3443;48.812;9.112;2023-03-21T10:15:20;15.60;99.90
6810;DHT22;3443;48.812;9.112;2023-03-21T10:18:02;15.50;99.90
6810;DHT22;3443;48.812;9.112;2023-03-21T10:20:34;15.90;99.90
6810;DHT22;3443;48.812;9.112;2023-03-21T10:25:36;16.40;99.90
6810;DHT22;3443;48.812;9.112;2023-03-21T10:38:02;16.50;99.90
6810;DHT22;3443;48.812;9.112;2023-03-21T10:40:28;16.20;99.90
6810;DHT22;3443;48.812;9.112;2023-03-21T10:45:22;15.80;99.90
6810;DHT22;3443;48.812;9.112;2023-03-21T10:47:49;15.70;99.90
6810;DHT22;3443;48.812;9.112;2023-03-21T10:50:18;15.70;99.90
6810;DHT22;3443;48.812;9.112;2023-03-21T10:52:55;15.80;99.90
6810;DHT22;3443;48.812;9.112;2023-03-21T10:58:07;16.10;99.90
6810;DHT22;3443;48.812;9.112;2023-03-21T11:00:38;16.30;99.90
6810;DHT22;3443;48.812;9.112;2023-03-21T11:03:04;16.50;99.90
6810;DHT22;3443;48.812;9.112;2023-03-21T11:05:38;16.50;99.90
6810;DHT22;3443;48.812;9.112;2023-03-21T11:08:10;16.60;99.90
6810;DHT22;3443;48.812;9.112;2023-03-21T11:13:29;16.60;99.90
6810;DHT22;3443;48.812;9.112;2023-03-21T11:16:05;16.40;99.90
6810;DHT22;3443;48.812;9.112;2023-03-21T11:18:31;16.20;99.90
6810;DHT22;3443;48.812;9.112;2023-03-21T11:21:08;16.50;99.90
6810;DHT22;3443;48.812;9.112;2023-03-21T11:23:39;16.50;99.90
6810;DHT22;3443;48.812;9.112;2023-03-21T11:26:25;17.00;99.90
6810;DHT22;3443;48.812;9.112;2023-03-21T11:28:52;16.60;99.90
6810;DHT22;3443;48.812;9.112;2023-03-21T11:31:20;16.60;99.90
6810;DHT22;3443;48.812;9.112;2023-03-21T11:33:55;16.50;99.90
6810;DHT22;3443;48.812;9.112;2023-03-21T11:36:31;16.40;99.90
6810;DHT22;3443;48.812;9.112;2023-03-21T11:39:34;16.60;99.90
6810;DHT22;3443;48.812;9.112;2023-03-21T11:42:02;16.40;99.90
6810;DHT22;3443;48.812;9.112;2023-03-21T11:44:42;16.40;99.90
6810;DHT22;3443;48.812;9.112;2023-03-21T11:47:09;16.50;99.90
6810;DHT22;3443;48.812;9.112;2023-03-21T11:49:35;16.40;99.90
6810;DHT22;3443;48.812;9.112;2023-03-21T11:52:21;16.60;99.90
6810;DHT22;3443;48.812;9.112;2023-03-21T11:57:35;16.30;99.90
6810;DHT22;3443;48.812;9.112;2023-03-21T12:05:53;16.00;99.90
6810;DHT22;3443;48.812;9.112;2023-03-21T12:11:10;16.10;99.90
6810;DHT22;3443;48.812;9.112;2023-03-21T12:14:16;16.10;99.90
6810;DHT22;3443;48.812;9.112;2023-03-21T12:16:52;15.60;99.90
6810;DHT22;3443;48.812;9.112;2023-03-21T12:22:13;15.60;99.90
6810;DHT22;3443;48.812;9.112;2023-03-21T12:24:54;15.60;99.90
6810;DHT22;3443;48.812;9.112;2023-03-21T12:30:06;15.90;99.90
6810;DHT22;3443;48.812;9.112;2023-03-21T12:51:39;16.30;99.90
6810;DHT22;3443;48.812;9.112;2023-03-21T12:54:31;16.40;99.90
6810;DHT22;3443;48.812;9.112;2023-03-21T12:57:09;16.60;99.90
6810;DHT22;3443;48.812;9.112;2023-03-21T13:00:52;16.80;99.90
6810;DHT22;3443;48.812;9.112;2023-03-21T13:05:30;17.10;99.90
6810;DHT22;3443;48.812;9.112;2023-03-21T13:10:43;17.20;99.90
6810;DHT22;3443;48.812;9.112;2023-03-21T13:13:35;17.30;99.90
6810;DHT22;3443;48.812;9.112;2023-03-21T13:24:04;17.10;99.90
6810;DHT22;3443;48.812;9.112;2023-03-21T13:26:45;17.20;99.90
6810;DHT22;3443;48.812;9.112;2023-03-21T13:29:20;17.20;99.90
6810;DHT22;3443;48.812;9.112;2023-03-21T13:31:48;17.10;99.90
6810;DHT22;3443;48.812;9.112;2023-03-21T13:34:14;17.10;99.90
6810;DHT22;3443;48.812;9.112;2023-03-21T13:36:40;17.10;99.90
6810;DHT22;3443;48.812;9.112;2023-03-21T13:39:19;17.10;99.90
6810;DHT22;3443;48.812;9.112;2023-03-21T13:41:47;16.90;99.90
6810;DHT22;3443;48.812;9.112;2023-03-21T13:44:40;16.70;99.90
6810;DHT22;3443;48.812;9.112;2023-03-21T13:55:41;16.20;99.90
6810;DHT22;3443;48.812;9.112;2023-03-21T13:58:37;16.30;99.90
6810;DHT22;3443;48.812;9.112;2023-03-21T14:01:26;16.30;99.90
6810;DHT22;3443;48.812;9.112;2023-03-21T14:04:05;16.50;99.90
6810;DHT22;3443;48.812;9.112;2023-03-21T14:07:24;16.20;99.90
6810;DHT22;3443;48.812;9.112;2023-03-21T14:09:33;16.20;99.90
6810;DHT22;3443;48.812;9.112;2023-03-21T14:12:02;16.10;99.90
6810;DHT22;3443;48.812;9.112;2023-03-21T14:14:36;16.00;99.90
6810;DHT22;3443;48.812;9.112;2023-03-21T14:17:11;16.20;99.90
6810;DHT22;3443;48.812;9.112;2023-03-21T14:19:36;16.20;99.90
6810;DHT22;3443;48.812;9.112;2023-03-21T14:22:03;16.60;99.90
6810;DHT22;3443;48.812;9.112;2023-03-21T14:24:34;16.30;99.90
6810;DHT22;3443;48.812;9.112;2023-03-21T14:26:59;16.40;99.90
6810;DHT22;3443;48.812;9.112;2023-03-21T14:29:30;16.60;99.90
6810;DHT22;3443;48.812;9.112;2023-03-21T14:31:58;16.50;99.90
6810;DHT22;3443;48.812;9.112;2023-03-21T14:34:29;16.50;99.90
6810;DHT22;3443;48.812;9.112;2023-03-21T14:36:56;16.40;99.90
6810;DHT22;3443;48.812;9.112;2023-03-21T14:39:29;16.30;99.90
6810;DHT22;3443;48.812;9.112;2023-03-21T14:42:02;16.30;99.90
6810;DHT22;3443;48.812;9.112;2023-03-21T14:47:22;16.40;99.90
6810;DHT22;3443;48.812;9.112;2023-03-21T14:49:47;16.20;99.90
6810;DHT22;3443;48.812;9.112;2023-03-21T14:52:17;16.20;99.90
6810;DHT22;3443;48.812;9.112;2023-03-21T14:54:46;16.30;99.90
6810;DHT22;3443;48.812;9.112;2023-03-21T14:57:17;16.30;99.90
6810;DHT22;3443;48.812;9.112;2023-03-21T14:59:46;16.40;99.90
6810;DHT22;3443;48.812;9.112;2023-03-21T15:02:18;16.20;99.90
6810;DHT22;3443;48.812;9.112;2023-03-21T15:07:27;16.20;99.90
6810;DHT22;3443;48.812;9.112;2023-03-21T15:09:55;16.20;99.90
6810;DHT22;3443;48.812;9.112;2023-03-21T16:54:37;14.10;99.90
6810;DHT22;3443;48.812;9.112;2023-03-21T16:57:04;14.10;99.90
6810;DHT22;3443;48.812;9.112;2023-03-21T16:59:32;14.00;99.90
6810;DHT22;3443;48.812;9.112;2023-03-21T17:01:58;14.00;99.90
6810;DHT22;3443;48.812;9.112;2023-03-21T17:04:23;13.90;99.90
6810;DHT22;3443;48.812;9.112;2023-03-21T17:06:51;13.90;99.90
6810;DHT22;3443;48.812;9.112;2023-03-21T17:09:20;13.90;99.90
6810;DHT22;3443;48.812;9.112;2023-03-21T17:11:46;13.80;99.90
6810;DHT22;3443;48.812;9.112;2023-03-21T17:14:12;13.80;99.90
6810;DHT22;3443;48.812;9.112;2023-03-21T17:16:41;13.80;99.90
6810;DHT22;3443;48.812;9.112;2023-03-21T17:19:15;13.70;99.90
6810;DHT22;3443;48.812;9.112;2023-03-21T17:21:41;13.60;99.90
6810;DHT22;3443;48.812;9.112;2023-03-21T17:24:07;13.60;99.90
6810;DHT22;3443;48.812;9.112;2023-03-21T17:26:32;13.70;99.90
6810;DHT22;3443;48.812;9.112;2023-03-21T17:28:58;13.60;99.90
6810;DHT22;3443;48.812;9.112;2023-03-21T17:33:53;13.60;99.90
6810;DHT22;3443;48.812;9.112;2023-03-21T17:36:31;13.50;99.90
6810;DHT22;3443;48.812;9.112;2023-03-21T17:38:57;13.50;99.90
6810;DHT22;3443;48.812;9.112;2023-03-21T17:41:24;13.40;99.90
6810;DHT22;3443;48.812;9.112;2023-03-21T17:43:50;13.50;99.90
6810;DHT22;3443;48.812;9.112;2023-03-21T17:46:18;13.30;99.90
6810;DHT22;3443;48.812;9.112;2023-03-21T17:48:44;13.50;99.90
6810;DHT22;3443;48.812;9.112;2023-03-21T17:51:10;13.30;99.90
6810;DHT22;3443;48.812;9.112;2023-03-21T17:53:39;13.10;99.90
6810;DHT22;3443;48.812;9.112;2023-03-21T17:56:05;13.50;99.90
6810;DHT22;3443;48.812;9.112;2023-03-21T17:58:31;13.40;99.90
6810;DHT22;3443;48.812;9.112;2023-03-21T18:00:57;13.40;99.90
6810;DHT22;3443;48.812;9.112;2023-03-21T18:27:44;13.30;99.90
6810;DHT22;3443;48.812;9.112;2023-03-21T18:30:15;13.30;99.90
6810;DHT22;3443;48.812;9.112;2023-03-21T18:32:42;13.10;99.90
6810;DHT22;3443;48.812;9.112;2023-03-21T18:35:11;13.00;99.90
6810;DHT22;3443;48.812;9.112;2023-03-21T18:37:37;13.00;99.90
6810;DHT22;3443;48.812;9.112;2023-03-21T18:40:03;12.90;99.90
6810;DHT22;3443;48.812;9.112;2023-03-21T18:42:31;12.80;99.90
6810;DHT22;3443;48.812;9.112;2023-03-21T18:44:57;12.80;99.90
6810;DHT22;3443;48.812;9.112;2023-03-21T18:47:22;12.70;99.90
6810;DHT22;3443;48.812;9.112;2023-03-21T18:49:48;12.80;99.90
6810;DHT22;3443;48.812;9.112;2023-03-21T18:52:13;12.80;99.90
6810;DHT22;3443;48.812;9.112;2023-03-21T18:54:39;12.80;99.90
6810;DHT22;3443;48.812;9.112;2023-03-21T18:57:05;12.80;99.90
6810;DHT22;3443;48.812;9.112;2023-03-21T18:59:35;12.80;99.90
6810;DHT22;3443;48.812;9.112;2023-03-21T19:02:02;12.80;99.90
6810;DHT22;3443;48.812;9.112;2023-03-21T19:04:27;12.80;99.90
6810;DHT22;3443;48.812;9.112;2023-03-21T19:09:19;12.70;99.90
6810;DHT22;3443;48.812;9.112;2023-03-21T19:11:45;12.70;99.90
6810;DHT22;3443;48.812;9.112;2023-03-21T19:14:13;12.70;99.90
6810;DHT22;3443;48.812;9.112;2023-03-21T19:16:40;12.70;99.90
6810;DHT22;3443;48.812;9.112;2023-03-21T19:19:06;12.70;99.90
6810;DHT22;3443;48.812;9.112;2023-03-21T19:21:33;12.60;99.90
6810;DHT22;3443;48.812;9.112;2023-03-21T19:23:59;12.70;99.90
6810;DHT22;3443;48.812;9.112;2023-03-21T19:26:26;12.60;99.90
6810;DHT22;3443;48.812;9.112;2023-03-21T19:28:52;12.70;99.90
6810;DHT22;3443;48.812;9.112;2023-03-21T19:31:18;12.70;99.90
6810;DHT22;3443;48.812;9.112;2023-03-21T19:33:45;12.60;99.90
6810;DHT22;3443;48.812;9.112;2023-03-21T19:36:11;12.60;99.90
6810;DHT22;3443;48.812;9.112;2023-03-21T19:38:37;12.50;99.90
6810;DHT22;3443;48.812;9.112;2023-03-21T19:41:03;12.50;99.90
6810;DHT22;3443;48.812;9.112;2023-03-21T19:43:29;12.50;99.90
6810;DHT22;3443;48.812;9.112;2023-03-21T19:45:55;12.50;99.90
6810;DHT22;3443;48.812;9.112;2023-03-21T19:48:22;12.40;99.90
6810;DHT22;3443;48.812;9.112;2023-03-21T19:50:48;12.40;99.90
6810;DHT22;3443;48.812;9.112;2023-03-21T19:53:14;12.30;99.90
6810;DHT22;3443;48.812;9.112;2023-03-21T19:55:40;12.40;99.90
6810;DHT22;3443;48.812;9.112;2023-03-21T19:58:05;12.30;99.90
6810;DHT22;3443;48.812;9.112;2023-03-21T20:00:32;12.40;99.90
6810;DHT22;3443;48.812;9.112;2023-03-21T20:02:58;12.40;99.90
6810;DHT22;3443;48.812;9.112;2023-03-21T20:05:24;12.30;99.90
6810;DHT22;3443;48.812;9.112;2023-03-21T20:07:51;12.30;99.90
6810;DHT22;3443;48.812;9.112;2023-03-21T20:10:24;12.30;99.90
6810;DHT22;3443;48.812;9.112;2023-03-21T20:12:53;12.30;99.90
6810;DHT22;3443;48.812;9.112;2023-03-21T20:15:19;12.30;99.90
6810;DHT22;3443;48.812;9.112;2023-03-21T20:17:45;12.30;99.90
6810;DHT22;3443;48.812;9.112;2023-03-21T20:20:12;12.30;99.90
6810;DHT22;3443;48.812;9.112;2023-03-21T20:22:41;12.20;99.90
6810;DHT22;3443;48.812;9.112;2023-03-21T20:25:07;12.20;99.90
6810;DHT22;3443;48.812;9.112;2023-03-21T20:27:41;12.20;99.90
6810;DHT22;3443;48.812;9.112;2023-03-21T20:30:09;12.20;99.90
6810;DHT22;3443;48.812;9.112;2023-03-21T20:32:40;12.10;99.90
6810;DHT22;3443;48.812;9.112;2023-03-21T20:35:07;12.10;99.90
6810;DHT22;3443;48.812;9.112;2023-03-21T20:37:34;12.00;99.90
6810;DHT22;3443;48.812;9.112;2023-03-21T20:40:00;12.00;99.90
6810;DHT22;3443;48.812;9.112;2023-03-21T20:42:26;12.00;99.90
6810;DHT22;3443;48.812;9.112;2023-03-21T20:44:52;11.90;99.90
6810;DHT22;3443;48.812;9.112;2023-03-21T20:47:20;11.90;99.90
6810;DHT22;3443;48.812;9.112;2023-03-21T20:49:46;11.90;99.90
6810;DHT22;3443;48.812;9.112;2023-03-21T20:52:12;11.90;99.90
6810;DHT22;3443;48.812;9.112;2023-03-21T20:54:39;11.90;99.90
6810;DHT22;3443;48.812;9.112;2023-03-21T20:57:05;11.90;99.90
6810;DHT22;3443;48.812;9.112;2023-03-21T20:59:30;12.00;99.90
6810;DHT22;3443;48.812;9.112;2023-03-21T21:01:56;11.90;99.90
6810;DHT22;3443;48.812;9.112;2023-03-21T21:04:23;11.90;99.90
6810;DHT22;3443;48.812;9.112;2023-03-21T21:06:48;11.90;99.90